Time;durP1;ratioP1;P1;durP2;ratioP2;P2;SDS_P1;SDS_P2;PMS_P1;PMS_P2;Temp;Humidity;BMP_temperature;BMP_pressure;BME280_temperature;BME280_humidity;BME280_pressure;Samples;Min_cycle;Max_cycle;Signal;HPM_P1;HPM_P2
2021/12/21 00:06:03;;;;;;;4.35;1.92;;;1.20;99.90;;;;;;20641537;28;20047;-43
2021/12/21 00:26:19;;;;;;;6.97;2.92;;;1.00;99.90;;;;;;20635008;28;20042;-43
2021/12/21 00:36:24;;;;;;;11.90;2.65;;;1.00;99.90;;;;;;20637380;28;20042;-42
2021/12/21 00:46:25;;;;;;;10.15;2.65;;;1.10;99.90;;;;;;20644275;28;20041;-43
2021/12/21 00:56:28;;;;;;;4.43;1.77;;;1.00;99.90;;;;;;20647156;28;20567;-43
2021/12/21 01:17:00;;;;;;;4.10;1.85;;;1.00;99.90;;;;;;20648981;28;20037;-42
2021/12/21 01:27:11;;;;;;;5.38;2.33;;;0.80;99.90;;;;;;20657883;28;20045;-43
2021/12/21 01:57:54;;;;;;;3.45;1.60;;;0.50;99.90;;;;;;20664600;28;20053;-43
2021/12/21 02:07:55;;;;;;;4.80;1.95;;;0.40;99.90;;;;;;20666060;28;20046;-43
2021/12/21 02:18:46;;;;;;;13.30;1.65;;;0.40;99.90;;;;;;20666817;28;20522;-43
2021/12/21 02:38:29;;;;;;;3.47;2.60;;;0.20;99.90;;;;;;20645959;28;20061;-43
2021/12/21 02:48:31;;;;;;;4.65;1.65;;;0.10;99.90;;;;;;20645887;28;20406;-43
2021/12/21 02:58:32;;;;;;;5.90;1.25;;;0.10;99.90;;;;;;20651936;28;20065;-43
2021/12/21 03:08:44;;;;;;;5.03;1.80;;;0.10;99.90;;;;;;20648338;28;20038;-43
2021/12/21 03:18:45;;;;;;;4.53;1.75;;;0.20;99.90;;;;;;20653936;28;20031;-43
2021/12/21 03:28:46;;;;;;;2.92;1.35;;;0.00;99.90;;;;;;20653783;28;20518;-43
2021/12/21 03:39:07;;;;;;;3.63;1.50;;;-0.10;99.90;;;;;;20655283;28;20089;-43
2021/12/21 03:49:33;;;;;;;2.70;1.02;;;-0.10;99.90;;;;;;20651696;28;20530;-43
2021/12/21 03:59:30;;;;;;;2.15;0.77;;;-0.10;99.90;;;;;;20650876;28;20041;-43
2021/12/21 04:09:31;;;;;;;4.40;1.55;;;-0.20;99.90;;;;;;20645988;28;20038;-43
2021/12/21 04:19:32;;;;;;;11.18;1.83;;;-0.30;99.90;;;;;;20649538;28;20034;-43
2021/12/21 04:29:34;;;;;;;5.60;1.70;;;-0.40;99.90;;;;;;20652287;28;20520;-43
2021/12/21 04:39:45;;;;;;;2.58;1.13;;;-0.40;99.90;;;;;;20643296;28;20030;-43
2021/12/21 04:49:46;;;;;;;5.10;1.80;;;-0.30;99.90;;;;;;20636466;28;20034;-43
2021/12/21 04:59:48;;;;;;;4.70;2.25;;;-0.40;99.90;;;;;;20638731;28;20054;-43
2021/12/21 05:09:55;;;;;;;3.40;1.55;;;-0.50;99.90;;;;;;20642864;28;20042;-43
2021/12/21 05:19:57;;;;;;;3.10;1.40;;;-0.50;99.90;;;;;;20640563;28;20468;-43
2021/12/21 05:29:58;;;;;;;4.57;1.73;;;-0.60;99.90;;;;;;20642971;28;20406;-43
2021/12/21 05:40:11;;;;;;;4.65;1.90;;;-0.70;99.90;;;;;;20647871;28;20049;-43
2021/12/21 05:50:16;;;;;;;3.47;2.53;;;-0.70;99.90;;;;;;20634278;28;20069;-43
2021/12/21 06:00:21;;;;;;;3.80;1.40;;;-0.70;99.90;;;;;;20653146;28;20050;-43
2021/12/21 06:10:34;;;;;;;5.57;1.77;;;-0.80;99.90;;;;;;20652023;28;20058;-43
2021/12/21 06:30:59;;;;;;;6.45;1.83;;;-0.80;99.90;;;;;;20664618;28;20038;-43
2021/12/21 06:41:01;;;;;;;2.78;1.17;;;-0.90;99.90;;;;;;20677204;28;20410;-43
2021/12/21 06:51:16;;;;;;;2.47;1.80;;;-0.80;99.90;;;;;;20664955;28;20509;-43
2021/12/21 07:01:19;;;;;;;3.67;2.10;;;-0.90;99.90;;;;;;20661623;28;20046;-43
2021/12/21 07:21:39;;;;;;;4.72;1.92;;;-1.00;99.90;;;;;;20650813;28;20098;-43
2021/12/21 07:31:40;;;;;;;7.20;2.35;;;-1.10;99.90;;;;;;20644213;28;20037;-43
2021/12/21 07:41:42;;;;;;;3.33;1.52;;;-1.10;99.90;;;;;;20648705;28;20111;-43
2021/12/21 07:51:43;;;;;;;4.20;1.75;;;-1.10;99.90;;;;;;20645998;28;20266;-43
2021/12/21 08:01:45;;;;;;;4.68;2.88;;;-1.10;99.90;;;;;;20647934;28;20042;-45
2021/12/21 08:22:06;;;;;;;5.53;2.15;;;-1.10;99.90;;;;;;20650442;28;20061;-44
2021/12/21 08:32:07;;;;;;;10.73;4.10;;;-1.10;99.90;;;;;;20650691;28;20030;-44
2021/12/21 08:42:13;;;;;;;4.03;1.83;;;-1.10;99.90;;;;;;20661516;28;20069;-44
2021/12/21 08:52:14;;;;;;;6.87;2.07;;;-1.00;99.90;;;;;;20654311;28;20031;-44
2021/12/21 09:02:15;;;;;;;6.03;2.40;;;-1.00;99.90;;;;;;20651725;28;20399;-44
2021/12/21 09:12:16;;;;;;;7.68;2.88;;;-0.80;99.90;;;;;;20653256;28;20042;-43
2021/12/21 09:22:18;;;;;;;5.10;2.17;;;-0.60;99.90;;;;;;20655316;28;20042;-44
2021/12/21 09:32:19;;;;;;;8.30;3.55;;;-0.30;99.90;;;;;;20654199;28;20038;-44
2021/12/21 09:42:27;;;;;;;8.00;3.17;;;-0.10;99.90;;;;;;20657502;28;20081;-44
2021/12/21 09:52:29;;;;;;;10.35;3.55;;;0.20;99.90;;;;;;20663052;28;20368;-44
2021/12/21 10:02:33;;;;;;;6.80;2.55;;;0.40;99.90;;;;;;20664039;28;20050;-44
2021/12/21 10:12:40;;;;;;;9.88;3.40;;;0.70;99.90;;;;;;20672381;28;20041;-44
2021/12/21 10:22:51;;;;;;;6.78;2.40;;;1.00;99.90;;;;;;20658159;28;20041;-43
2021/12/21 10:32:54;;;;;;;8.35;2.78;;;1.40;99.90;;;;;;20653098;28;20276;-44
2021/12/21 10:43:02;;;;;;;8.38;3.38;;;1.90;99.90;;;;;;20661691;28;20400;-44
2021/12/21 10:53:04;;;;;;;8.88;3.42;;;2.40;99.90;;;;;;20652041;28;20030;-44
2021/12/21 11:03:05;;;;;;;9.02;3.40;;;2.90;99.90;;;;;;20650049;28;20038;-43
2021/12/21 11:13:10;;;;;;;13.73;4.35;;;3.90;99.90;;;;;;20651504;28;20494;-44
2021/12/21 11:23:13;;;;;;;6.38;3.30;;;4.50;99.90;;;;;;20662863;28;20716;-44
2021/12/21 11:33:18;;;;;;;6.60;3.40;;;4.90;99.90;;;;;;20670026;28;20035;-44
2021/12/21 11:43:32;;;;;;;;;;;5.70;99.90;;;;;;20667551;28;20765;-44
2021/12/21 11:53:33;;;;;;;11.02;3.20;;;6.40;99.90;;;;;;20658521;28;19917;-44
2021/12/21 12:03:39;;;;;;;7.45;3.78;;;7.00;99.90;;;;;;20663101;28;20045;-44
2021/12/21 12:13:43;;;;;;;10.27;3.70;;;7.30;99.90;;;;;;20664368;28;20037;-44
2021/12/21 12:23:53;;;;;;;7.32;3.13;;;7.00;99.90;;;;;;20661793;28;20050;-44
2021/12/21 12:33:54;;;;;;;7.63;2.92;;;7.20;99.90;;;;;;20642637;28;20262;-44
2021/12/21 12:43:55;;;;;;;10.93;3.45;;;7.70;99.90;;;;;;20665562;28;20801;-44
2021/12/21 12:53:56;;;;;;;11.98;3.90;;;7.80;99.90;;;;;;20643412;28;20038;-44
2021/12/21 13:04:10;;;;;;;8.10;3.07;;;8.00;99.90;;;;;;20645158;28;20057;-44
2021/12/21 13:14:14;;;;;;;6.13;2.20;;;8.10;99.90;;;;;;20656700;28;20185;-44
2021/12/21 13:24:22;;;;;;;5.03;2.25;;;7.60;99.90;;;;;;20665591;28;20038;-44
2021/12/21 13:34:25;;;;;;;5.75;2.92;;;6.80;99.90;;;;;;20671451;28;20330;-44
2021/12/21 13:44:32;;;;;;;7.97;2.22;;;6.00;99.90;;;;;;20671938;28;20196;-44
2021/12/21 13:54:36;;;;;;;6.90;3.03;;;5.40;99.90;;;;;;20674512;28;20371;-44
2021/12/21 14:04:59;;;;;;;5.25;2.20;;;5.00;99.90;;;;;;20669224;28;20046;-44
2021/12/21 14:14:58;;;;;;;8.13;2.42;;;4.80;99.90;;;;;;20666063;28;20043;-44
2021/12/21 14:25:00;;;;;;;4.45;2.70;;;4.50;99.90;;;;;;20670241;28;20050;-44
2021/12/21 14:35:04;;;;;;;5.97;2.75;;;4.40;99.90;;;;;;20667541;28;20026;-44
2021/12/21 14:45:09;;;;;;;4.72;1.90;;;4.20;99.90;;;;;;20664353;28;20037;-44
2021/12/21 14:55:17;;;;;;;5.32;2.90;;;4.00;99.90;;;;;;20667707;28;20052;-44
2021/12/21 15:05:24;;;;;;;7.40;2.53;;;3.80;99.90;;;;;;20662623;28;20045;-44
2021/12/21 15:15:25;;;;;;;;;;;3.50;99.90;;;;;;20656631;28;20034;-44
2021/12/21 15:25:27;;;;;;;5.88;2.50;;;3.40;99.90;;;;;;20658245;28;19925;-43
2021/12/21 15:35:33;;;;;;;5.57;1.95;;;3.00;99.90;;;;;;20654024;28;20038;-44
2021/12/21 15:45:34;;;;;;;5.47;2.20;;;2.80;99.90;;;;;;20647313;28;20045;-43
2021/12/21 15:55:35;;;;;;;13.68;4.00;;;2.60;99.90;;;;;;20644313;28;20034;-44
2021/12/21 16:05:36;;;;;;;7.68;2.38;;;2.40;99.90;;;;;;20651183;28;20052;-44
2021/12/21 16:15:38;;;;;;;5.60;2.17;;;2.20;99.90;;;;;;20644234;28;20442;-43
2021/12/21 16:25:39;;;;;;;7.38;3.33;;;2.00;99.90;;;;;;20643857;28;20049;-43
2021/12/21 16:35:41;;;;;;;7.63;4.13;;;1.80;99.90;;;;;;20642969;28;20384;-43
2021/12/21 16:45:43;;;;;;;10.18;3.85;;;1.60;99.90;;;;;;20640049;28;20041;-43
2021/12/21 16:55:44;;;;;;;5.35;1.98;;;1.60;99.90;;;;;;20642077;28;20045;-43
2021/12/21 17:05:46;;;;;;;8.55;2.90;;;1.50;99.90;;;;;;20642917;28;20052;-43
2021/12/21 17:15:48;;;;;;;11.98;3.33;;;1.40;99.90;;;;;;20578245;28;20656;-44
2021/12/21 17:25:49;;;;;;;10.32;3.25;;;1.30;99.90;;;;;;20606636;28;20050;-44
2021/12/21 17:35:52;;;;;;;9.63;4.43;;;1.30;99.90;;;;;;20602543;28;20038;-44
2021/12/21 17:45:54;;;;;;;10.13;4.03;;;1.10;99.90;;;;;;20609009;28;20488;-44
2021/12/21 17:55:55;;;;;;;8.10;3.47;;;1.00;99.90;;;;;;20607016;28;20044;-44
2021/12/21 18:05:56;;;;;;;14.23;4.22;;;0.90;99.90;;;;;;20606875;28;20045;-44
2021/12/21 18:15:58;;;;;;;12.98;3.90;;;0.90;99.90;;;;;;20620739;28;20038;-44
2021/12/21 18:25:59;;;;;;;9.93;3.45;;;0.80;99.90;;;;;;20621419;28;20039;-44
2021/12/21 18:36:01;;;;;;;13.30;4.88;;;0.70;99.90;;;;;;20621335;28;20383;-44
2021/12/21 18:46:02;;;;;;;9.45;4.68;;;0.70;99.90;;;;;;20616934;28;20039;-44
2021/12/21 18:56:04;;;;;;;9.10;4.03;;;0.80;99.90;;;;;;20617343;28;20533;-44
2021/12/21 19:06:05;;;;;;;8.13;3.63;;;0.70;99.90;;;;;;20618440;28;20634;-44
2021/12/21 19:16:06;;;;;;;5.82;3.13;;;0.70;99.90;;;;;;20611150;28;20039;-44
2021/12/21 19:26:07;;;;;;;12.27;3.72;;;0.70;99.90;;;;;;20614330;28;20532;-44
2021/12/21 19:36:08;;;;;;;11.07;4.68;;;0.70;99.90;;;;;;20614864;28;20042;-44
2021/12/21 19:46:09;;;;;;;7.57;3.33;;;0.70;99.90;;;;;;20612918;28;22002;-44
2021/12/21 19:56:10;;;;;;;7.80;3.63;;;0.70;99.90;;;;;;20610822;28;20045;-44
2021/12/21 20:06:12;;;;;;;8.93;3.67;;;0.50;99.90;;;;;;20610878;28;20424;-44
2021/12/21 20:16:13;;;;;;;10.20;4.15;;;0.50;99.90;;;;;;20620993;28;20501;-44
2021/12/21 20:26:14;;;;;;;9.95;3.13;;;0.40;99.90;;;;;;20608134;28;20054;-44
2021/12/21 20:36:15;;;;;;;9.13;4.03;;;0.40;99.90;;;;;;20602568;28;20045;-43
2021/12/21 20:46:16;;;;;;;9.35;4.57;;;0.40;99.90;;;;;;20586156;28;20065;-43
2021/12/21 20:56:17;;;;;;;8.25;4.38;;;0.30;99.90;;;;;;20588498;28;20315;-44
2021/12/21 21:06:18;;;;;;;7.78;3.15;;;0.10;99.90;;;;;;20582419;28;20304;-44
2021/12/21 21:16:20;;;;;;;11.52;5.20;;;0.00;99.90;;;;;;20583716;28;20086;-44
2021/12/21 21:26:22;;;;;;;9.40;4.65;;;0.10;99.90;;;;;;20572637;28;20590;-43
2021/12/21 21:36:23;;;;;;;10.32;4.20;;;0.00;99.90;;;;;;20572993;28;20058;-44
2021/12/21 21:46:25;;;;;;;9.40;4.38;;;0.00;99.90;;;;;;20592907;28;20065;-44
2021/12/21 21:56:27;;;;;;;12.20;4.97;;;0.00;99.90;;;;;;20589978;28;21635;-44
2021/12/21 22:06:31;;;;;;;8.60;4.15;;;0.00;99.90;;;;;;20589754;28;20077;-44
2021/12/21 22:16:32;;;;;;;13.30;5.45;;;0.20;99.90;;;;;;20592937;28;20065;-44
2021/12/21 22:26:33;;;;;;;12.13;4.80;;;0.20;99.90;;;;;;20596002;28;20072;-44
2021/12/21 22:36:34;;;;;;;11.98;5.05;;;0.20;99.90;;;;;;20593156;28;20064;-43
2021/12/21 22:46:36;;;;;;;12.02;4.93;;;0.10;99.90;;;;;;20592197;28;20072;-44
2021/12/21 22:56:37;;;;;;;21.10;4.82;;;0.00;99.90;;;;;;20589665;28;20072;-44
2021/12/21 23:06:38;;;;;;;11.18;4.78;;;-0.20;99.90;;;;;;20585794;28;20081;-44
2021/12/21 23:16:39;;;;;;;12.35;5.13;;;-0.20;99.90;;;;;;20583715;28;20096;-44
2021/12/21 23:26:41;;;;;;;17.40;5.60;;;-0.20;99.90;;;;;;20588085;28;20065;-44
2021/12/21 23:36:43;;;;;;;9.27;4.57;;;-0.30;99.90;;;;;;20582435;28;20073;-44
2021/12/21 23:46:44;;;;;;;17.27;4.05;;;-0.40;99.90;;;;;;20583459;28;20137;-44
2021/12/21 23:56:46;;;;;;;12.68;3.65;;;-0.40;99.90;;;;;;20582844;28;20062;-44
